sensor_id;sensor_type;location;lat;lon;timestamp;P1;durP1;ratioP1;P2;durP2;ratioP2
72388;SDS011;60566;48.062;9.930;2023-04-03T00:01:32;19.83;;;8.05;;
72388;SDS011;60566;48.062;9.930;2023-04-03T00:03:58;12.25;;;7.57;;
72388;SDS011;60566;48.062;9.930;2023-04-03T00:06:24;17.10;;;8.48;;
72388;SDS011;60566;48.062;9.930;2023-04-03T00:08:49;16.13;;;7.82;;
72388;SDS011;60566;48.062;9.930;2023-04-03T00:11:16;14.70;;;8.10;;
72388;SDS011;60566;48.062;9.930;2023-04-03T00:13:42;13.00;;;7.43;;
72388;SDS011;60566;48.062;9.930;2023-04-03T00:16:08;15.18;;;7.40;;
72388;SDS011;60566;48.062;9.930;2023-04-03T00:18:34;13.73;;;7.60;;
72388;SDS011;60566;48.062;9.930;2023-04-03T00:21:00;15.98;;;8.80;;
72388;SDS011;60566;48.062;9.930;2023-04-03T00:23:25;13.48;;;7.38;;
72388;SDS011;60566;48.062;9.930;2023-04-03T00:25:51;11.80;;;7.60;;
72388;SDS011;60566;48.062;9.930;2023-04-03T00:28:17;14.60;;;7.22;;
72388;SDS011;60566;48.062;9.930;2023-04-03T00:30:43;11.95;;;6.47;;
72388;SDS011;60566;48.062;9.930;2023-04-03T00:33:08;14.95;;;7.35;;
72388;SDS011;60566;48.062;9.930;2023-04-03T00:35:35;17.52;;;8.05;;
72388;SDS011;60566;48.062;9.930;2023-04-03T00:38:01;15.73;;;7.80;;
72388;SDS011;60566;48.062;9.930;2023-04-03T00:40:26;13.68;;;7.97;;
72388;SDS011;60566;48.062;9.930;2023-04-03T00:42:54;13.00;;;7.30;;
72388;SDS011;60566;48.062;9.930;2023-04-03T00:48:08;13.48;;;7.22;;
72388;SDS011;60566;48.062;9.930;2023-04-03T00:50:37;13.75;;;8.55;;
72388;SDS011;60566;48.062;9.930;2023-04-03T00:53:04;14.35;;;7.38;;
72388;SDS011;60566;48.062;9.930;2023-04-03T00:55:30;10.43;;;6.57;;
72388;SDS011;60566;48.062;9.930;2023-04-03T00:57:55;16.35;;;8.07;;
72388;SDS011;60566;48.062;9.930;2023-04-03T01:00:21;12.35;;;7.35;;
72388;SDS011;60566;48.062;9.930;2023-04-03T01:02:49;14.95;;;8.88;;
72388;SDS011;60566;48.062;9.930;2023-04-03T01:05:14;12.75;;;6.60;;
72388;SDS011;60566;48.062;9.930;2023-04-03T01:07:41;13.38;;;7.47;;
72388;SDS011;60566;48.062;9.930;2023-04-03T01:10:08;13.38;;;7.43;;
72388;SDS011;60566;48.062;9.930;2023-04-03T01:12:36;17.73;;;8.32;;
72388;SDS011;60566;48.062;9.930;2023-04-03T01:15:04;13.50;;;7.95;;
72388;SDS011;60566;48.062;9.930;2023-04-03T01:17:32;13.55;;;6.93;;
72388;SDS011;60566;48.062;9.930;2023-04-03T01:20:08;13.35;;;7.10;;
72388;SDS011;60566;48.062;9.930;2023-04-03T01:22:46;13.73;;;6.00;;
72388;SDS011;60566;48.062;9.930;2023-04-03T01:25:19;14.32;;;7.80;;
72388;SDS011;60566;48.062;9.930;2023-04-03T01:27:44;12.27;;;7.50;;
72388;SDS011;60566;48.062;9.930;2023-04-03T01:30:10;11.60;;;6.30;;
72388;SDS011;60566;48.062;9.930;2023-04-03T01:32:38;12.40;;;7.05;;
72388;SDS011;60566;48.062;9.930;2023-04-03T01:35:03;11.98;;;7.32;;
72388;SDS011;60566;48.062;9.930;2023-04-03T01:37:29;16.13;;;7.00;;
72388;SDS011;60566;48.062;9.930;2023-04-03T01:39:54;11.55;;;6.47;;
72388;SDS011;60566;48.062;9.930;2023-04-03T01:42:20;10.63;;;6.35;;
72388;SDS011;60566;48.062;9.930;2023-04-03T01:44:45;12.65;;;6.93;;
72388;SDS011;60566;48.062;9.930;2023-04-03T01:47:10;12.90;;;7.22;;
72388;SDS011;60566;48.062;9.930;2023-04-03T01:49:37;12.13;;;6.05;;
72388;SDS011;60566;48.062;9.930;2023-04-03T01:52:02;12.52;;;6.35;;
72388;SDS011;60566;48.062;9.930;2023-04-03T01:54:28;13.27;;;7.00;;
72388;SDS011;60566;48.062;9.930;2023-04-03T01:56:53;12.05;;;6.40;;
72388;SDS011;60566;48.062;9.930;2023-04-03T01:59:19;10.75;;;5.90;;
72388;SDS011;60566;48.062;9.930;2023-04-03T02:01:44;13.80;;;7.05;;
72388;SDS011;60566;48.062;9.930;2023-04-03T02:04:09;13.18;;;6.75;;
72388;SDS011;60566;48.062;9.930;2023-04-03T02:06:36;11.75;;;5.45;;
72388;SDS011;60566;48.062;9.930;2023-04-03T02:09:02;11.10;;;6.65;;
72388;SDS011;60566;48.062;9.930;2023-04-03T02:11:27;12.05;;;7.30;;
72388;SDS011;60566;48.062;9.930;2023-04-03T02:13:53;11.02;;;6.72;;
72388;SDS011;60566;48.062;9.930;2023-04-03T02:16:18;10.38;;;5.78;;
72388;SDS011;60566;48.062;9.930;2023-04-03T02:18:44;9.75;;;5.95;;
72388;SDS011;60566;48.062;9.930;2023-04-03T02:21:09;13.57;;;7.25;;
72388;SDS011;60566;48.062;9.930;2023-04-03T02:23:36;12.20;;;6.82;;
72388;SDS011;60566;48.062;9.930;2023-04-03T02:26:05;12.23;;;6.57;;
72388;SDS011;60566;48.062;9.930;2023-04-03T02:28:31;12.90;;;6.90;;
72388;SDS011;60566;48.062;9.930;2023-04-03T02:30:57;10.90;;;6.50;;
72388;SDS011;60566;48.062;9.930;2023-04-03T02:33:22;12.55;;;6.22;;
72388;SDS011;60566;48.062;9.930;2023-04-03T02:35:51;13.95;;;7.15;;
72388;SDS011;60566;48.062;9.930;2023-04-03T02:38:17;11.18;;;6.72;;
72388;SDS011;60566;48.062;9.930;2023-04-03T02:40:44;13.02;;;6.05;;
72388;SDS011;60566;48.062;9.930;2023-04-03T02:43:09;10.55;;;5.80;;
72388;SDS011;60566;48.062;9.930;2023-04-03T02:45:35;10.13;;;6.43;;
72388;SDS011;60566;48.062;9.930;2023-04-03T02:48:00;12.60;;;7.13;;
72388;SDS011;60566;48.062;9.930;2023-04-03T02:50:26;12.13;;;6.50;;
72388;SDS011;60566;48.062;9.930;2023-04-03T02:52:51;11.68;;;6.90;;
72388;SDS011;60566;48.062;9.930;2023-04-03T02:55:16;10.15;;;5.97;;
72388;SDS011;60566;48.062;9.930;2023-04-03T02:57:43;11.98;;;5.70;;
72388;SDS011;60566;48.062;9.930;2023-04-03T03:00:09;12.20;;;6.30;;
72388;SDS011;60566;48.062;9.930;2023-04-03T03:02:35;11.90;;;5.50;;
72388;SDS011;60566;48.062;9.930;2023-04-03T03:05:00;11.88;;;6.15;;
72388;SDS011;60566;48.062;9.930;2023-04-03T03:07:26;14.65;;;6.15;;
72388;SDS011;60566;48.062;9.930;2023-04-03T03:09:51;13.05;;;6.90;;
72388;SDS011;60566;48.062;9.930;2023-04-03T03:12:17;11.45;;;6.72;;
72388;SDS011;60566;48.062;9.930;2023-04-03T03:14:43;15.25;;;7.18;;
72388;SDS011;60566;48.062;9.930;2023-04-03T03:17:09;14.18;;;7.30;;
72388;SDS011;60566;48.062;9.930;2023-04-03T03:19:34;11.32;;;6.80;;
72388;SDS011;60566;48.062;9.930;2023-04-03T03:22:00;12.88;;;5.90;;
72388;SDS011;60566;48.062;9.930;2023-04-03T03:24:25;10.00;;;6.07;;
72388;SDS011;60566;48.062;9.930;2023-04-03T03:26:50;13.90;;;6.20;;
72388;SDS011;60566;48.062;9.930;2023-04-03T03:29:16;13.98;;;6.78;;
72388;SDS011;60566;48.062;9.930;2023-04-03T03:31:43;10.95;;;5.82;;
72388;SDS011;60566;48.062;9.930;2023-04-03T03:34:08;12.95;;;6.45;;
72388;SDS011;60566;48.062;9.930;2023-04-03T03:36:33;13.15;;;6.60;;
72388;SDS011;60566;48.062;9.930;2023-04-03T03:38:59;12.18;;;5.88;;
72388;SDS011;60566;48.062;9.930;2023-04-03T03:41:24;12.02;;;6.45;;
72388;SDS011;60566;48.062;9.930;2023-04-03T03:43:50;10.98;;;6.03;;
72388;SDS011;60566;48.062;9.930;2023-04-03T03:46:15;12.35;;;7.07;;
72388;SDS011;60566;48.062;9.930;2023-04-03T03:48:42;19.85;;;7.15;;
72388;SDS011;60566;48.062;9.930;2023-04-03T03:51:07;11.70;;;7.28;;
72388;SDS011;60566;48.062;9.930;2023-04-03T03:53:33;11.68;;;6.00;;
72388;SDS011;60566;48.062;9.930;2023-04-03T03:55:58;12.60;;;6.35;;
72388;SDS011;60566;48.062;9.930;2023-04-03T03:58:24;11.02;;;5.80;;
72388;SDS011;60566;48.062;9.930;2023-04-03T04:00:49;13.48;;;7.55;;
72388;SDS011;60566;48.062;9.930;2023-04-03T04:03:14;9.60;;;6.18;;
72388;SDS011;60566;48.062;9.930;2023-04-03T04:05:41;11.43;;;5.95;;
72388;SDS011;60566;48.062;9.930;2023-04-03T04:08:07;10.95;;;5.65;;
72388;SDS011;60566;48.062;9.930;2023-04-03T04:10:32;11.55;;;5.90;;
72388;SDS011;60566;48.062;9.930;2023-04-03T04:12:58;11.50;;;6.13;;
72388;SDS011;60566;48.062;9.930;2023-04-03T04:15:23;12.80;;;6.45;;
72388;SDS011;60566;48.062;9.930;2023-04-03T04:17:48;11.30;;;6.45;;
72388;SDS011;60566;48.062;9.930;2023-04-03T04:20:14;11.65;;;5.70;;
72388;SDS011;60566;48.062;9.930;2023-04-03T04:22:41;10.20;;;6.00;;
72388;SDS011;60566;48.062;9.930;2023-04-03T04:25:06;14.82;;;6.72;;
72388;SDS011;60566;48.062;9.930;2023-04-03T04:27:32;11.45;;;6.22;;
72388;SDS011;60566;48.062;9.930;2023-04-03T04:29:58;11.32;;;6.55;;
72388;SDS011;60566;48.062;9.930;2023-04-03T04:32:23;14.25;;;6.47;;
72388;SDS011;60566;48.062;9.930;2023-04-03T04:34:48;11.82;;;6.28;;
72388;SDS011;60566;48.062;9.930;2023-04-03T04:37:14;9.95;;;5.60;;
72388;SDS011;60566;48.062;9.930;2023-04-03T04:39:41;12.57;;;6.53;;
72388;SDS011;60566;48.062;9.930;2023-04-03T04:42:06;12.02;;;5.40;;
72388;SDS011;60566;48.062;9.930;2023-04-03T04:44:31;12.45;;;5.88;;
72388;SDS011;60566;48.062;9.930;2023-04-03T04:46:57;10.45;;;5.97;;
72388;SDS011;60566;48.062;9.930;2023-04-03T04:49:22;10.48;;;5.40;;
72388;SDS011;60566;48.062;9.930;2023-04-03T04:51:48;11.27;;;5.80;;
72388;SDS011;60566;48.062;9.930;2023-04-03T04:54:13;12.70;;;6.25;;
72388;SDS011;60566;48.062;9.930;2023-04-03T04:56:40;10.77;;;5.30;;
72388;SDS011;60566;48.062;9.930;2023-04-03T04:59:05;12.10;;;6.43;;
72388;SDS011;60566;48.062;9.930;2023-04-03T05:01:31;10.70;;;6.00;;
72388;SDS011;60566;48.062;9.930;2023-04-03T05:03:56;8.68;;;4.93;;
72388;SDS011;60566;48.062;9.930;2023-04-03T05:06:21;10.02;;;5.22;;
72388;SDS011;60566;48.062;9.930;2023-04-03T05:08:47;10.57;;;5.45;;
72388;SDS011;60566;48.062;9.930;2023-04-03T05:11:12;7.55;;;4.30;;
72388;SDS011;60566;48.062;9.930;2023-04-03T05:13:39;7.88;;;5.03;;
72388;SDS011;60566;48.062;9.930;2023-04-03T05:16:05;8.73;;;4.53;;
72388;SDS011;60566;48.062;9.930;2023-04-03T05:18:30;9.30;;;5.28;;
72388;SDS011;60566;48.062;9.930;2023-04-03T05:20:56;10.13;;;5.38;;
72388;SDS011;60566;48.062;9.930;2023-04-03T05:23:21;11.85;;;5.90;;
72388;SDS011;60566;48.062;9.930;2023-04-03T05:25:46;9.55;;;5.43;;
72388;SDS011;60566;48.062;9.930;2023-04-03T05:28:12;8.43;;;5.53;;
72388;SDS011;60566;48.062;9.930;2023-04-03T05:30:39;10.38;;;5.30;;
72388;SDS011;60566;48.062;9.930;2023-04-03T05:33:04;9.20;;;5.55;;
72388;SDS011;60566;48.062;9.930;2023-04-03T05:35:30;11.00;;;4.90;;
72388;SDS011;60566;48.062;9.930;2023-04-03T05:37:55;8.25;;;4.55;;
72388;SDS011;60566;48.062;9.930;2023-04-03T05:40:20;8.52;;;5.05;;
72388;SDS011;60566;48.062;9.930;2023-04-03T05:42:46;7.85;;;3.88;;
72388;SDS011;60566;48.062;9.930;2023-04-03T05:45:11;9.05;;;5.50;;
72388;SDS011;60566;48.062;9.930;2023-04-03T05:47:38;10.38;;;4.72;;
72388;SDS011;60566;48.062;9.930;2023-04-03T05:50:04;11.68;;;6.03;;
72388;SDS011;60566;48.062;9.930;2023-04-03T05:52:30;7.13;;;4.22;;
72388;SDS011;60566;48.062;9.930;2023-04-03T05:57:24;9.57;;;4.43;;
72388;SDS011;60566;48.062;9.930;2023-04-03T05:59:49;7.90;;;4.13;;
72388;SDS011;60566;48.062;9.930;2023-04-03T06:02:16;8.77;;;5.13;;
72388;SDS011;60566;48.062;9.930;2023-04-03T06:04:43;9.13;;;4.68;;
72388;SDS011;60566;48.062;9.930;2023-04-03T06:07:10;7.80;;;4.53;;
72388;SDS011;60566;48.062;9.930;2023-04-03T06:09:36;14.48;;;5.50;;
72388;SDS011;60566;48.062;9.930;2023-04-03T06:12:02;10.30;;;5.78;;
72388;SDS011;60566;48.062;9.930;2023-04-03T06:14:27;10.68;;;5.80;;
72388;SDS011;60566;48.062;9.930;2023-04-03T06:16:53;11.52;;;5.03;;
72388;SDS011;60566;48.062;9.930;2023-04-03T06:19:18;9.77;;;5.80;;
72388;SDS011;60566;48.062;9.930;2023-04-03T06:21:46;15.85;;;5.43;;
72388;SDS011;60566;48.062;9.930;2023-04-03T06:24:11;8.93;;;4.63;;
72388;SDS011;60566;48.062;9.930;2023-04-03T06:26:39;9.13;;;4.72;;
72388;SDS011;60566;48.062;9.930;2023-04-03T06:29:05;9.98;;;5.72;;
72388;SDS011;60566;48.062;9.930;2023-04-03T06:31:30;11.27;;;4.93;;
72388;SDS011;60566;48.062;9.930;2023-04-03T06:33:55;7.63;;;4.40;;
72388;SDS011;60566;48.062;9.930;2023-04-03T06:36:21;7.03;;;4.70;;
72388;SDS011;60566;48.062;9.930;2023-04-03T06:38:48;10.57;;;5.30;;
72388;SDS011;60566;48.062;9.930;2023-04-03T06:41:14;8.68;;;4.70;;
72388;SDS011;60566;48.062;9.930;2023-04-03T06:43:39;14.43;;;5.88;;
72388;SDS011;60566;48.062;9.930;2023-04-03T06:46:05;8.35;;;5.43;;
72388;SDS011;60566;48.062;9.930;2023-04-03T06:48:30;8.55;;;5.40;;
72388;SDS011;60566;48.062;9.930;2023-04-03T06:50:55;7.95;;;4.63;;
72388;SDS011;60566;48.062;9.930;2023-04-03T06:53:21;10.90;;;4.75;;
72388;SDS011;60566;48.062;9.930;2023-04-03T06:55:47;7.43;;;4.43;;
72388;SDS011;60566;48.062;9.930;2023-04-03T06:58:13;9.45;;;5.28;;
72388;SDS011;60566;48.062;9.930;2023-04-03T07:00:38;8.63;;;4.70;;
72388;SDS011;60566;48.062;9.930;2023-04-03T07:03:04;8.80;;;5.15;;
72388;SDS011;60566;48.062;9.930;2023-04-03T07:05:29;11.23;;;5.25;;
72388;SDS011;60566;48.062;9.930;2023-04-03T07:07:55;14.32;;;4.88;;
72388;SDS011;60566;48.062;9.930;2023-04-03T07:10:20;10.23;;;5.47;;
72388;SDS011;60566;48.062;9.930;2023-04-03T07:12:47;11.23;;;5.60;;
72388;SDS011;60566;48.062;9.930;2023-04-03T07:15:13;10.75;;;5.35;;
72388;SDS011;60566;48.062;9.930;2023-04-03T07:17:39;9.27;;;5.18;;
72388;SDS011;60566;48.062;9.930;2023-04-03T07:20:04;9.95;;;4.97;;
72388;SDS011;60566;48.062;9.930;2023-04-03T07:22:31;9.40;;;5.07;;
72388;SDS011;60566;48.062;9.930;2023-04-03T07:24:56;10.13;;;5.18;;
72388;SDS011;60566;48.062;9.930;2023-04-03T07:27:21;8.88;;;5.05;;
72388;SDS011;60566;48.062;9.930;2023-04-03T07:29:48;11.18;;;4.60;;
72388;SDS011;60566;48.062;9.930;2023-04-03T07:32:14;7.82;;;4.47;;
72388;SDS011;60566;48.062;9.930;2023-04-03T07:34:39;8.50;;;4.85;;
72388;SDS011;60566;48.062;9.930;2023-04-03T07:37:05;11.40;;;5.55;;
72388;SDS011;60566;48.062;9.930;2023-04-03T07:39:30;8.45;;;4.78;;
72388;SDS011;60566;48.062;9.930;2023-04-03T07:41:56;7.28;;;4.40;;
72388;SDS011;60566;48.062;9.930;2023-04-03T07:44:21;10.98;;;4.88;;
72388;SDS011;60566;48.062;9.930;2023-04-03T07:46:48;9.77;;;5.25;;
72388;SDS011;60566;48.062;9.930;2023-04-03T07:49:13;7.57;;;5.40;;
72388;SDS011;60566;48.062;9.930;2023-04-03T07:51:39;10.70;;;5.20;;
72388;SDS011;60566;48.062;9.930;2023-04-03T07:54:05;12.93;;;5.72;;
72388;SDS011;60566;48.062;9.930;2023-04-03T07:56:30;8.60;;;4.65;;
72388;SDS011;60566;48.062;9.930;2023-04-03T07:58:56;9.75;;;5.22;;
72388;SDS011;60566;48.062;9.930;2023-04-03T08:01:21;7.97;;;4.40;;
72388;SDS011;60566;48.062;9.930;2023-04-03T08:03:48;8.32;;;4.45;;
72388;SDS011;60566;48.062;9.930;2023-04-03T08:06:13;8.15;;;4.50;;
72388;SDS011;60566;48.062;9.930;2023-04-03T08:08:39;8.52;;;5.15;;
72388;SDS011;60566;48.062;9.930;2023-04-03T08:11:04;10.45;;;5.40;;
72388;SDS011;60566;48.062;9.930;2023-04-03T08:13:30;9.00;;;5.53;;
72388;SDS011;60566;48.062;9.930;2023-04-03T08:15:55;16.90;;;6.10;;
72388;SDS011;60566;48.062;9.930;2023-04-03T08:18:21;8.48;;;5.72;;
72388;SDS011;60566;48.062;9.930;2023-04-03T08:20:48;10.05;;;5.45;;
72388;SDS011;60566;48.062;9.930;2023-04-03T08:23:13;13.48;;;6.38;;
72388;SDS011;60566;48.062;9.930;2023-04-03T08:25:39;8.85;;;5.05;;
72388;SDS011;60566;48.062;9.930;2023-04-03T08:28:04;12.52;;;6.13;;
72388;SDS011;60566;48.062;9.930;2023-04-03T08:30:30;10.85;;;6.25;;
72388;SDS011;60566;48.062;9.930;2023-04-03T08:32:55;9.00;;;5.50;;
72388;SDS011;60566;48.062;9.930;2023-04-03T08:35:20;9.75;;;6.03;;
72388;SDS011;60566;48.062;9.930;2023-04-03T08:37:47;11.25;;;6.45;;
72388;SDS011;60566;48.062;9.930;2023-04-03T08:40:14;10.77;;;5.78;;
72388;SDS011;60566;48.062;9.930;2023-04-03T08:42:43;10.70;;;6.00;;
72388;SDS011;60566;48.062;9.930;2023-04-03T08:45:15;10.38;;;5.85;;
72388;SDS011;60566;48.062;9.930;2023-04-03T08:47:42;10.95;;;5.47;;
72388;SDS011;60566;48.062;9.930;2023-04-03T08:50:12;8.93;;;6.07;;
72388;SDS011;60566;48.062;9.930;2023-04-03T08:52:41;11.25;;;5.72;;
72388;SDS011;60566;48.062;9.930;2023-04-03T08:55:16;11.70;;;5.75;;
72388;SDS011;60566;48.062;9.930;2023-04-03T08:57:47;12.85;;;5.95;;
72388;SDS011;60566;48.062;9.930;2023-04-03T09:00:16;14.77;;;6.28;;
72388;SDS011;60566;48.062;9.930;2023-04-03T09:02:43;10.35;;;5.75;;
72388;SDS011;60566;48.062;9.930;2023-04-03T09:05:11;14.40;;;6.32;;
72388;SDS011;60566;48.062;9.930;2023-04-03T09:07:39;11.85;;;5.63;;
72388;SDS011;60566;48.062;9.930;2023-04-03T09:10:08;13.43;;;6.45;;
72388;SDS011;60566;48.062;9.930;2023-04-03T09:12:38;11.77;;;5.30;;
72388;SDS011;60566;48.062;9.930;2023-04-03T09:15:07;11.10;;;5.03;;
72388;SDS011;60566;48.062;9.930;2023-04-03T09:17:41;8.98;;;5.95;;
72388;SDS011;60566;48.062;9.930;2023-04-03T09:20:13;13.48;;;5.75;;
72388;SDS011;60566;48.062;9.930;2023-04-03T09:22:42;10.65;;;5.70;;
72388;SDS011;60566;48.062;9.930;2023-04-03T09:25:10;13.20;;;5.75;;
72388;SDS011;60566;48.062;9.930;2023-04-03T09:27:40;10.00;;;5.10;;
72388;SDS011;60566;48.062;9.930;2023-04-03T09:30:05;7.60;;;4.78;;
72388;SDS011;60566;48.062;9.930;2023-04-03T09:32:34;9.05;;;5.30;;
72388;SDS011;60566;48.062;9.930;2023-04-03T09:35:01;10.63;;;4.93;;
72388;SDS011;60566;48.062;9.930;2023-04-03T09:37:34;9.52;;;5.25;;
72388;SDS011;60566;48.062;9.930;2023-04-03T09:40:02;9.93;;;5.05;;
72388;SDS011;60566;48.062;9.930;2023-04-03T09:42:28;8.73;;;4.25;;
72388;SDS011;60566;48.062;9.930;2023-04-03T09:44:57;11.32;;;6.35;;
72388;SDS011;60566;48.062;9.930;2023-04-03T09:47:24;9.07;;;4.85;;
72388;SDS011;60566;48.062;9.930;2023-04-03T09:49:50;9.60;;;4.45;;
72388;SDS011;60566;48.062;9.930;2023-04-03T09:52:19;13.25;;;6.05;;
72388;SDS011;60566;48.062;9.930;2023-04-03T09:54:45;8.52;;;4.70;;
72388;SDS011;60566;48.062;9.930;2023-04-03T09:57:11;9.00;;;5.00;;
72388;SDS011;60566;48.062;9.930;2023-04-03T09:59:39;8.25;;;5.05;;
72388;SDS011;60566;48.062;9.930;2023-04-03T10:02:19;7.90;;;4.57;;
72388;SDS011;60566;48.062;9.930;2023-04-03T10:04:48;7.80;;;4.60;;
72388;SDS011;60566;48.062;9.930;2023-04-03T10:07:26;6.00;;;3.80;;
72388;SDS011;60566;48.062;9.930;2023-04-03T10:09:56;6.35;;;3.97;;
72388;SDS011;60566;48.062;9.930;2023-04-03T10:12:22;10.40;;;4.53;;
72388;SDS011;60566;48.062;9.930;2023-04-03T10:14:53;5.35;;;3.30;;
72388;SDS011;60566;48.062;9.930;2023-04-03T10:17:22;5.85;;;3.78;;
72388;SDS011;60566;48.062;9.930;2023-04-03T10:19:55;8.30;;;4.30;;
72388;SDS011;60566;48.062;9.930;2023-04-03T10:22:24;9.07;;;4.88;;
72388;SDS011;60566;48.062;9.930;2023-04-03T10:24:57;7.82;;;4.60;;
72388;SDS011;60566;48.062;9.930;2023-04-03T10:27:29;6.50;;;4.18;;
72388;SDS011;60566;48.062;9.930;2023-04-03T10:30:03;9.18;;;3.85;;
72388;SDS011;60566;48.062;9.930;2023-04-03T10:32:40;6.32;;;3.95;;
72388;SDS011;60566;48.062;9.930;2023-04-03T10:35:12;8.88;;;4.35;;
72388;SDS011;60566;48.062;9.930;2023-04-03T10:37:47;7.90;;;4.20;;
72388;SDS011;60566;48.062;9.930;2023-04-03T10:40:22;5.88;;;3.60;;
72388;SDS011;60566;48.062;9.930;2023-04-03T10:42:52;8.52;;;3.30;;
72388;SDS011;60566;48.062;9.930;2023-04-03T10:45:21;8.48;;;4.15;;
72388;SDS011;60566;48.062;9.930;2023-04-03T10:47:54;6.15;;;3.95;;
72388;SDS011;60566;48.062;9.930;2023-04-03T10:50:29;9.07;;;4.53;;
72388;SDS011;60566;48.062;9.930;2023-04-03T10:53:02;7.75;;;4.43;;
72388;SDS011;60566;48.062;9.930;2023-04-03T10:55:31;7.93;;;4.05;;
72388;SDS011;60566;48.062;9.930;2023-04-03T10:58:00;8.30;;;5.03;;
72388;SDS011;60566;48.062;9.930;2023-04-03T11:00:30;6.70;;;4.30;;
72388;SDS011;60566;48.062;9.930;2023-04-03T11:03:03;7.40;;;4.70;;
72388;SDS011;60566;48.062;9.930;2023-04-03T11:05:31;7.88;;;4.60;;
72388;SDS011;60566;48.062;9.930;2023-04-03T11:08:00;8.73;;;4.97;;
72388;SDS011;60566;48.062;9.930;2023-04-03T11:10:31;7.20;;;4.68;;
72388;SDS011;60566;48.062;9.930;2023-04-03T11:13:01;8.25;;;5.03;;
72388;SDS011;60566;48.062;9.930;2023-04-03T11:15:32;6.78;;;4.03;;
72388;SDS011;60566;48.062;9.930;2023-04-03T11:17:58;8.75;;;4.35;;
72388;SDS011;60566;48.062;9.930;2023-04-03T11:20:26;7.10;;;4.28;;
72388;SDS011;60566;48.062;9.930;2023-04-03T11:22:56;7.07;;;4.75;;
72388;SDS011;60566;48.062;9.930;2023-04-03T11:25:24;7.50;;;4.22;;
72388;SDS011;60566;48.062;9.930;2023-04-03T11:27:51;8.15;;;4.63;;
72388;SDS011;60566;48.062;9.930;2023-04-03T11:30:22;7.63;;;4.65;;
72388;SDS011;60566;48.062;9.930;2023-04-03T11:35:42;7.05;;;4.57;;
72388;SDS011;60566;48.062;9.930;2023-04-03T11:38:13;6.50;;;4.05;;
72388;SDS011;60566;48.062;9.930;2023-04-03T11:40:42;9.90;;;4.78;;
72388;SDS011;60566;48.062;9.930;2023-04-03T11:43:18;7.70;;;4.88;;
72388;SDS011;60566;48.062;9.930;2023-04-03T11:45:50;12.25;;;4.70;;
72388;SDS011;60566;48.062;9.930;2023-04-03T12:09:28;9.48;;;4.15;;
72388;SDS011;60566;48.062;9.930;2023-04-03T12:12:32;7.45;;;4.45;;
72388;SDS011;60566;48.062;9.930;2023-04-03T12:15:17;7.13;;;4.38;;
72388;SDS011;60566;48.062;9.930;2023-04-03T12:17:45;6.60;;;3.80;;
72388;SDS011;60566;48.062;9.930;2023-04-03T12:23:26;9.02;;;4.60;;
72388;SDS011;60566;48.062;9.930;2023-04-03T12:25:53;8.57;;;4.25;;
72388;SDS011;60566;48.062;9.930;2023-04-03T12:28:26;10.73;;;4.50;;
72388;SDS011;60566;48.062;9.930;2023-04-03T12:30:52;9.05;;;5.05;;
72388;SDS011;60566;48.062;9.930;2023-04-03T12:33:20;8.93;;;5.68;;
72388;SDS011;60566;48.062;9.930;2023-04-03T12:35:57;9.07;;;4.35;;
72388;SDS011;60566;48.062;9.930;2023-04-03T12:38:36;6.75;;;4.35;;
72388;SDS011;60566;48.062;9.930;2023-04-03T12:41:27;8.38;;;4.60;;
72388;SDS011;60566;48.062;9.930;2023-04-03T12:46:42;8.63;;;4.90;;
72388;SDS011;60566;48.062;9.930;2023-04-03T12:49:22;7.93;;;4.25;;
72388;SDS011;60566;48.062;9.930;2023-04-03T12:51:55;5.38;;;3.85;;
72388;SDS011;60566;48.062;9.930;2023-04-03T12:54:22;9.80;;;4.57;;
72388;SDS011;60566;48.062;9.930;2023-04-03T12:56:48;8.20;;;4.50;;
72388;SDS011;60566;48.062;9.930;2023-04-03T12:59:15;7.70;;;4.60;;
72388;SDS011;60566;48.062;9.930;2023-04-03T13:01:43;8.00;;;4.40;;
72388;SDS011;60566;48.062;9.930;2023-04-03T13:04:09;5.50;;;3.58;;
72388;SDS011;60566;48.062;9.930;2023-04-03T13:06:38;5.60;;;3.83;;
72388;SDS011;60566;48.062;9.930;2023-04-03T13:09:06;9.20;;;4.57;;
72388;SDS011;60566;48.062;9.930;2023-04-03T13:11:33;6.82;;;4.55;;
72388;SDS011;60566;48.062;9.930;2023-04-03T13:14:01;7.60;;;4.53;;
72388;SDS011;60566;48.062;9.930;2023-04-03T13:16:28;5.97;;;4.35;;
72388;SDS011;60566;48.062;9.930;2023-04-03T13:18:54;10.77;;;4.93;;
72388;SDS011;60566;48.062;9.930;2023-04-03T13:21:21;6.53;;;4.72;;
72388;SDS011;60566;48.062;9.930;2023-04-03T13:23:48;7.38;;;4.63;;
72388;SDS011;60566;48.062;9.930;2023-04-03T13:26:15;7.70;;;4.75;;
72388;SDS011;60566;48.062;9.930;2023-04-03T13:28:43;9.52;;;4.85;;
72388;SDS011;60566;48.062;9.930;2023-04-03T13:31:16;10.25;;;4.95;;
72388;SDS011;60566;48.062;9.930;2023-04-03T13:33:51;8.07;;;4.70;;
72388;SDS011;60566;48.062;9.930;2023-04-03T13:36:23;7.82;;;4.10;;
72388;SDS011;60566;48.062;9.930;2023-04-03T13:38:57;12.52;;;4.70;;
72388;SDS011;60566;48.062;9.930;2023-04-03T13:41:24;8.40;;;4.70;;
72388;SDS011;60566;48.062;9.930;2023-04-03T13:43:52;9.55;;;4.30;;
72388;SDS011;60566;48.062;9.930;2023-04-03T13:46:26;8.73;;;4.07;;
72388;SDS011;60566;48.062;9.930;2023-04-03T13:48:53;7.15;;;3.78;;
72388;SDS011;60566;48.062;9.930;2023-04-03T13:51:21;11.55;;;4.97;;
72388;SDS011;60566;48.062;9.930;2023-04-03T13:53:48;6.40;;;3.88;;
72388;SDS011;60566;48.062;9.930;2023-04-03T13:56:16;8.35;;;4.65;;
72388;SDS011;60566;48.062;9.930;2023-04-03T13:58:53;10.82;;;4.05;;
72388;SDS011;60566;48.062;9.930;2023-04-03T14:01:24;7.32;;;4.50;;
72388;SDS011;60566;48.062;9.930;2023-04-03T14:03:52;7.25;;;5.25;;
72388;SDS011;60566;48.062;9.930;2023-04-03T14:06:19;8.00;;;4.97;;
72388;SDS011;60566;48.062;9.930;2023-04-03T14:08:44;8.15;;;4.15;;
72388;SDS011;60566;48.062;9.930;2023-04-03T14:11:11;7.22;;;4.40;;
72388;SDS011;60566;48.062;9.930;2023-04-03T14:13:38;8.07;;;4.63;;
72388;SDS011;60566;48.062;9.930;2023-04-03T14:16:05;9.25;;;4.95;;
72388;SDS011;60566;48.062;9.930;2023-04-03T14:18:30;7.65;;;4.53;;
72388;SDS011;60566;48.062;9.930;2023-04-03T14:20:56;9.10;;;5.53;;
72388;SDS011;60566;48.062;9.930;2023-04-03T14:23:21;7.38;;;4.35;;
72388;SDS011;60566;48.062;9.930;2023-04-03T14:25:47;5.70;;;4.03;;
72388;SDS011;60566;48.062;9.930;2023-04-03T14:28:14;6.90;;;4.22;;
72388;SDS011;60566;48.062;9.930;2023-04-03T14:30:45;6.07;;;4.53;;
72388;SDS011;60566;48.062;9.930;2023-04-03T14:33:14;9.30;;;4.65;;
72388;SDS011;60566;48.062;9.930;2023-04-03T14:35:41;9.88;;;4.32;;
72388;SDS011;60566;48.062;9.930;2023-04-03T14:38:10;7.32;;;4.28;;
72388;SDS011;60566;48.062;9.930;2023-04-03T14:40:40;8.05;;;4.65;;
72388;SDS011;60566;48.062;9.930;2023-04-03T14:43:05;7.07;;;5.10;;
72388;SDS011;60566;48.062;9.930;2023-04-03T14:45:31;7.90;;;4.85;;
72388;SDS011;60566;48.062;9.930;2023-04-03T14:47:56;7.88;;;4.38;;
72388;SDS011;60566;48.062;9.930;2023-04-03T14:50:24;7.00;;;4.15;;
72388;SDS011;60566;48.062;9.930;2023-04-03T14:52:52;8.45;;;5.32;;
72388;SDS011;60566;48.062;9.930;2023-04-03T14:55:18;8.57;;;4.70;;
72388;SDS011;60566;48.062;9.930;2023-04-03T14:57:45;6.88;;;4.53;;
72388;SDS011;60566;48.062;9.930;2023-04-03T15:00:12;6.18;;;4.22;;
72388;SDS011;60566;48.062;9.930;2023-04-03T15:02:39;11.35;;;5.57;;
72388;SDS011;60566;48.062;9.930;2023-04-03T15:05:05;10.25;;;5.13;;
72388;SDS011;60566;48.062;9.930;2023-04-03T15:07:34;6.45;;;3.65;;
72388;SDS011;60566;48.062;9.930;2023-04-03T15:10:03;9.10;;;4.97;;
72388;SDS011;60566;48.062;9.930;2023-04-03T15:12:39;7.13;;;4.50;;
72388;SDS011;60566;48.062;9.930;2023-04-03T15:15:05;8.57;;;4.38;;
72388;SDS011;60566;48.062;9.930;2023-04-03T15:17:31;6.50;;;4.43;;